< < Back
Terminal Aerodrome Forecast


Current Version              Previous Versions:   1  2  3  4  5  6  7  8  9  

Terminal Aerodrome Forecast

524
FTUS42 KCAE 202300
TAFAGS
TAF
KAGS 202340Z 2100/2124 VRB04KT P6SM OVC007
      TEMPO 2100/2103 5SM BR OVC005
     FM210600 VRB03KT 2SM BR OVC004
     FM211300 VRB03KT 5SM BR OVC008
     FM211600 05004KT P6SM VCSH BKN015=



Latest METAR

168
SAUS70 KWBC 210600 RRO
MTRAGS
METAR KAGS 210553Z AUTO 05004KT 5SM BR OVC007 08/07 A3022 RMK AO2 SLP232
T00830072 10100 20083 58005


USA.gov is the U.S. government's official web portal to all federal, state and local government web resources and services.